Time;durP1;ratioP1;P1;durP2;ratioP2;P2;SDS_P1;SDS_P2;PMS_P1;PMS_P2;Temp;Humidity;BMP_temperature;BMP_pressure;BME280_temperature;BME280_humidity;BME280_pressure;Samples;Min_cycle;Max_cycle;Signal;HPM_P1;HPM_P2
2022/01/28 00:01:34;;;;;;;14.53;3.20;;;;;;;;;;5014431;28;20220;-67
2022/01/28 00:04:11;;;;;;;13.13;3.07;;;;;;;;;;5014909;28;20188;-66
2022/01/28 00:06:37;;;;;;;12.60;3.30;;;;;;;;;;5013336;28;20180;-66
2022/01/28 00:09:03;;;;;;;10.17;2.83;;;;;;;;;;5014270;28;20180;-67
2022/01/28 00:11:29;;;;;;;12.73;3.30;;;;;;;;;;5013027;28;20183;-66
2022/01/28 00:14:07;;;;;;;13.97;3.20;;;;;;;;;;5015009;28;20263;-67
2022/01/28 00:38:14;;;;;;;17.77;4.43;;;;;;;;;;5014423;28;20210;-66
2022/01/28 00:40:40;;;;;;;11.90;3.30;;;;;;;;;;5014691;28;20203;-66
2022/01/28 00:43:07;;;;;;;17.90;3.50;;;;;;;;;;5015825;28;20202;-67
2022/01/28 00:45:33;;;;;;;19.57;3.53;;;;;;;;;;5016195;28;20172;-65
2022/01/28 00:47:59;;;;;;;8.87;2.77;;;;;;;;;;5014465;28;20187;-65
2022/01/28 00:50:25;;;;;;;15.53;3.00;;;;;;;;;;5013656;28;20200;-66
2022/01/28 00:52:51;;;;;;;14.90;4.87;;;;;;;;;;5013764;28;20179;-66
2022/01/28 00:55:17;;;;;;;18.13;3.67;;;;;;;;;;5012536;28;20655;-66
2022/01/28 00:57:43;;;;;;;14.30;3.83;;;;;;;;;;5012674;28;20187;-67
2022/01/28 01:00:10;;;;;;;13.80;3.10;;;;;;;;;;5012321;28;20221;-67
2022/01/28 01:02:36;;;;;;;11.70;2.97;;;;;;;;;;5012399;28;20230;-66
2022/01/28 01:05:02;;;;;;;14.13;3.37;;;;;;;;;;5012377;28;20652;-66
2022/01/28 01:07:28;;;;;;;11.70;3.20;;;;;;;;;;5013677;28;20180;-67
2022/01/28 01:09:54;;;;;;;12.00;3.13;;;;;;;;;;5013544;28;20204;-66
2022/01/28 01:12:23;;;;;;;12.37;2.50;;;;;;;;;;5012437;28;20246;-66
2022/01/28 01:14:49;;;;;;;13.50;3.07;;;;;;;;;;5012455;28;20233;-66
2022/01/28 01:17:30;;;;;;;12.10;2.63;;;;;;;;;;5012639;28;20212;-66
2022/01/28 01:20:13;;;;;;;12.10;2.83;;;;;;;;;;5012488;28;20224;-67
2022/01/28 01:22:40;;;;;;;18.00;2.67;;;;;;;;;;5012413;28;20251;-66
2022/01/28 01:25:16;;;;;;;12.50;3.13;;;;;;;;;;5013503;28;20179;-67
2022/01/28 01:27:43;;;;;;;16.47;3.30;;;;;;;;;;5015792;28;20175;-67
2022/01/28 01:30:09;;;;;;;16.70;3.50;;;;;;;;;;5016141;28;20290;-67
2022/01/28 01:32:35;;;;;;;14.93;3.40;;;;;;;;;;5017494;28;20176;-67
2022/01/28 01:35:01;;;;;;;17.30;3.13;;;;;;;;;;5017628;28;20221;-67
2022/01/28 01:37:27;;;;;;;15.83;2.90;;;;;;;;;;5018064;28;20207;-66
2022/01/28 01:39:53;;;;;;;24.13;4.13;;;;;;;;;;5018559;28;20199;-67
2022/01/28 01:42:30;;;;;;;13.10;3.27;;;;;;;;;;5024481;28;20182;-66
2022/01/28 01:45:55;;;;;;;10.13;2.93;;;;;;;;;;5030317;28;20174;-66
2022/01/28 01:53:41;;;;;;;15.40;3.40;;;;;;;;;;5044994;28;20194;-66
2022/01/28 01:56:07;;;;;;;17.10;3.80;;;;;;;;;;5043510;28;20203;-63
2022/01/28 01:58:35;;;;;;;11.20;3.20;;;;;;;;;;5044450;28;20233;-65
2022/01/28 02:01:01;;;;;;;10.63;2.83;;;;;;;;;;5043503;28;20210;-64
2022/01/28 02:03:28;;;;;;;14.90;2.80;;;;;;;;;;5042734;28;20214;-64
2022/01/28 02:05:58;;;;;;;11.57;2.97;;;;;;;;;;5043604;28;20266;-65
2022/01/28 02:08:27;;;;;;;14.70;3.00;;;;;;;;;;5043207;28;20179;-65
2022/01/28 02:10:58;;;;;;;15.83;3.17;;;;;;;;;;5043821;28;20199;-65
2022/01/28 02:13:25;;;;;;;9.47;2.77;;;;;;;;;;5042679;28;20175;-65
2022/01/28 02:15:51;;;;;;;10.97;2.53;;;;;;;;;;5043356;28;20199;-64
2022/01/28 02:18:17;;;;;;;12.00;2.93;;;;;;;;;;5044297;28;20588;-65
2022/01/28 02:20:48;;;;;;;16.33;3.33;;;;;;;;;;5043327;28;20277;-73
2022/01/28 02:23:14;;;;;;;16.73;3.70;;;;;;;;;;5042237;28;20229;-65
2022/01/28 02:25:41;;;;;;;17.07;3.33;;;;;;;;;;5043536;28;20186;-64
2022/01/28 02:28:09;;;;;;;16.67;3.20;;;;;;;;;;5043710;28;20181;-64
2022/01/28 02:30:35;;;;;;;16.83;4.17;;;;;;;;;;5042771;28;20198;-63
2022/01/28 02:33:10;;;;;;;9.33;2.60;;;;;;;;;;5043926;28;20186;-64
2022/01/28 02:35:38;;;;;;;14.17;3.60;;;;;;;;;;5041959;28;20195;-66
2022/01/28 02:38:04;;;;;;;13.23;3.07;;;;;;;;;;5041664;28;20171;-65
2022/01/28 02:40:30;;;;;;;12.73;3.20;;;;;;;;;;5041835;28;20236;-65
2022/01/28 02:43:16;;;;;;;16.07;3.37;;;;;;;;;;5042577;28;20171;-65
2022/01/28 02:45:50;;;;;;;18.40;3.00;;;;;;;;;;5043203;28;20237;-65
2022/01/28 02:48:21;;;;;;;17.70;2.97;;;;;;;;;;5041374;28;20183;-63
2022/01/28 02:51:14;;;;;;;12.23;2.90;;;;;;;;;;5041817;28;20215;-69
2022/01/28 02:53:52;;;;;;;14.80;3.27;;;;;;;;;;5042976;28;20292;-66
2022/01/28 02:56:32;;;;;;;15.50;3.17;;;;;;;;;;5041965;28;20190;-65
2022/01/28 02:58:58;;;;;;;15.73;2.80;;;;;;;;;;5042582;28;20259;-70
2022/01/28 03:01:25;;;;;;;15.40;3.23;;;;;;;;;;5042626;28;20191;-65
2022/01/28 03:03:54;;;;;;;12.40;3.27;;;;;;;;;;5042708;28;20264;-65
2022/01/28 03:06:21;;;;;;;15.67;3.37;;;;;;;;;;5042798;28;20284;-64
2022/01/28 03:08:55;;;;;;;15.70;3.33;;;;;;;;;;5041851;28;20179;-64
2022/01/28 03:14:16;;;;;;;10.67;2.87;;;;;;;;;;5043010;28;20218;-64
2022/01/28 03:17:09;;;;;;;12.20;2.80;;;;;;;;;;5041921;28;20199;-65
2022/01/28 03:19:49;;;;;;;15.23;3.40;;;;;;;;;;5041821;28;20159;-64
2022/01/28 03:22:15;;;;;;;20.80;4.10;;;;;;;;;;5042434;28;20186;-65
2022/01/28 03:24:42;;;;;;;13.70;3.47;;;;;;;;;;5042252;28;20175;-65
2022/01/28 03:27:15;;;;;;;14.47;2.90;;;;;;;;;;5043104;28;20171;-65
2022/01/28 03:29:41;;;;;;;13.20;2.87;;;;;;;;;;5041698;28;20167;-65
2022/01/28 03:32:07;;;;;;;11.37;2.90;;;;;;;;;;5042239;28;20270;-64
2022/01/28 03:34:33;;;;;;;14.83;3.53;;;;;;;;;;5042880;28;20253;-65
2022/01/28 03:36:59;;;;;;;15.43;2.53;;;;;;;;;;5042673;28;20199;-64
2022/01/28 03:39:25;;;;;;;9.87;3.20;;;;;;;;;;5042425;28;20179;-64
2022/01/28 03:41:51;;;;;;;15.87;3.77;;;;;;;;;;5042029;28;20203;-65
2022/01/28 03:44:17;;;;;;;15.90;2.80;;;;;;;;;;5040230;28;20226;-69
2022/01/28 03:46:43;;;;;;;15.43;3.27;;;;;;;;;;5040778;28;20187;-65
2022/01/28 03:49:09;;;;;;;11.97;2.83;;;;;;;;;;5040562;28;20237;-65
2022/01/28 03:51:35;;;;;;;9.00;2.70;;;;;;;;;;5041449;28;20215;-65
2022/01/28 03:54:02;;;;;;;16.60;3.00;;;;;;;;;;5039943;28;20179;-65
2022/01/28 03:56:28;;;;;;;12.83;3.23;;;;;;;;;;5041725;28;20557;-63
2022/01/28 03:58:54;;;;;;;20.20;3.33;;;;;;;;;;5041281;28;20594;-65
2022/01/28 04:01:31;;;;;;;15.83;3.07;;;;;;;;;;5040652;28;20660;-65
2022/01/28 04:04:37;;;;;;;14.90;2.73;;;;;;;;;;5040387;28;20549;-66
2022/01/28 04:12:17;;;;;;;13.10;2.67;;;;;;;;;;5041102;28;20635;-64
2022/01/28 04:14:59;;;;;;;13.80;2.73;;;;;;;;;;5040586;28;20209;-65
2022/01/28 04:17:25;;;;;;;13.53;2.63;;;;;;;;;;5040136;28;20659;-65
2022/01/28 04:19:51;;;;;;;19.33;3.10;;;;;;;;;;5040895;28;20175;-62
2022/01/28 04:22:18;;;;;;;10.00;2.80;;;;;;;;;;5039949;28;20195;-65
2022/01/28 04:24:44;;;;;;;15.07;3.00;;;;;;;;;;5041006;28;20265;-64
2022/01/28 04:27:10;;;;;;;16.73;2.97;;;;;;;;;;5040613;28;20554;-65
2022/01/28 04:29:36;;;;;;;12.40;2.77;;;;;;;;;;5040796;28;20183;-65
2022/01/28 04:32:03;;;;;;;17.17;3.33;;;;;;;;;;5040693;28;20210;-67
2022/01/28 04:34:29;;;;;;;19.20;3.40;;;;;;;;;;5040411;28;20190;-65
2022/01/28 04:42:13;;;;;;;11.97;2.83;;;;;;;;;;5040829;28;20194;-64
2022/01/28 04:47:34;;;;;;;17.53;3.20;;;;;;;;;;5040649;28;20611;-64
2022/01/28 04:52:57;;;;;;;11.57;2.87;;;;;;;;;;5039989;28;20276;-65
2022/01/28 04:58:13;;;;;;;17.30;3.13;;;;;;;;;;5040955;28;20259;-66
2022/01/28 05:01:07;;;;;;;17.20;3.47;;;;;;;;;;5039809;28;20195;-64
2022/01/28 05:04:07;;;;;;;9.83;2.60;;;;;;;;;;5040388;28;20166;-70
2022/01/28 05:27:38;;;;;;;11.17;3.00;;;;;;;;;;5040273;28;20189;-65
2022/01/28 05:30:05;;;;;;;41.93;13.53;;;;;;;;;;5039401;28;20537;-65
2022/01/28 05:32:31;;;;;;;48.00;19.10;;;;;;;;;;5039698;28;20217;-64
2022/01/28 05:34:57;;;;;;;58.30;28.07;;;;;;;;;;5039776;28;20262;-65
2022/01/28 05:37:22;;;;;;;74.67;37.73;;;;;;;;;;5039265;28;20206;-66
2022/01/28 05:39:48;;;;;;;33.73;16.33;;;;;;;;;;5038802;28;20203;-64
2022/01/28 05:42:14;;;;;;;21.30;6.47;;;;;;;;;;5039576;28;20195;-64
2022/01/28 05:44:40;;;;;;;25.90;11.30;;;;;;;;;;5039619;28;20182;-65
2022/01/28 05:47:06;;;;;;;24.20;7.77;;;;;;;;;;5039722;28;20410;-66
2022/01/28 05:49:32;;;;;;;18.50;6.70;;;;;;;;;;5039334;28;20183;-64
2022/01/28 05:51:58;;;;;;;19.97;8.63;;;;;;;;;;5039068;28;20312;-65
2022/01/28 05:54:24;;;;;;;24.33;8.17;;;;;;;;;;5039838;28;20183;-65
2022/01/28 05:56:51;;;;;;;17.53;6.57;;;;;;;;;;5037884;28;20484;-64
2022/01/28 05:59:19;;;;;;;19.57;5.20;;;;;;;;;;5037372;28;20210;-64
2022/01/28 06:01:45;;;;;;;17.67;5.70;;;;;;;;;;5038308;28;20199;-65
2022/01/28 06:04:10;;;;;;;21.47;6.20;;;;;;;;;;5037766;28;20433;-67
2022/01/28 06:06:36;;;;;;;23.33;5.60;;;;;;;;;;5038521;28;20198;-65
2022/01/28 06:09:03;;;;;;;27.63;10.70;;;;;;;;;;5039401;28;20310;-65
2022/01/28 06:11:29;;;;;;;23.33;10.17;;;;;;;;;;5039186;28;20264;-67
2022/01/28 06:13:55;;;;;;;19.63;8.50;;;;;;;;;;5043397;28;20677;-65
2022/01/28 06:16:21;;;;;;;19.77;6.87;;;;;;;;;;5041430;28;20203;-64
2022/01/28 06:18:47;;;;;;;22.97;6.50;;;;;;;;;;5042482;28;20171;-63
2022/01/28 06:21:13;;;;;;;17.50;5.87;;;;;;;;;;5041831;28;20307;-64
2022/01/28 06:23:39;;;;;;;16.73;4.07;;;;;;;;;;5042657;28;20665;-64
2022/01/28 06:26:05;;;;;;;20.00;4.33;;;;;;;;;;5042631;28;20282;-65
2022/01/28 06:28:32;;;;;;;17.23;6.37;;;;;;;;;;5041467;28;20250;-63
2022/01/28 06:30:58;;;;;;;11.53;3.93;;;;;;;;;;5041915;28;20209;-65
2022/01/28 06:33:25;;;;;;;22.27;3.40;;;;;;;;;;5041850;28;20211;-66
2022/01/28 06:35:51;;;;;;;10.17;3.77;;;;;;;;;;5044151;28;20199;-64
2022/01/28 06:38:17;;;;;;;12.43;3.50;;;;;;;;;;5043815;28;20172;-63
2022/01/28 06:40:43;;;;;;;15.60;4.10;;;;;;;;;;5043547;28;20195;-65
2022/01/28 06:43:13;;;;;;;13.03;3.57;;;;;;;;;;5042526;28;20191;-67
2022/01/28 06:45:42;;;;;;;14.40;2.90;;;;;;;;;;5044222;28;20218;-64
2022/01/28 06:48:10;;;;;;;13.83;3.83;;;;;;;;;;5043245;28;20172;-65
2022/01/28 06:50:36;;;;;;;12.00;3.27;;;;;;;;;;5042380;28;20211;-64
2022/01/28 06:53:02;;;;;;;16.00;4.07;;;;;;;;;;5043125;28;20168;-65
2022/01/28 06:55:28;;;;;;;17.13;3.77;;;;;;;;;;5043581;28;20179;-64
2022/01/28 06:57:56;;;;;;;18.73;3.93;;;;;;;;;;5043485;28;20190;-65
2022/01/28 07:00:22;;;;;;;17.20;3.93;;;;;;;;;;5041996;28;20183;-64
2022/01/28 07:02:50;;;;;;;15.43;3.30;;;;;;;;;;5043199;28;20197;-64
2022/01/28 07:05:16;;;;;;;15.53;4.17;;;;;;;;;;5043392;28;20210;-65
2022/01/28 07:07:42;;;;;;;15.20;3.13;;;;;;;;;;5042857;28;20643;-67
2022/01/28 07:10:08;;;;;;;17.40;3.67;;;;;;;;;;5043026;28;20175;-64
2022/01/28 07:12:34;;;;;;;13.83;4.30;;;;;;;;;;5043013;28;20210;-65
2022/01/28 07:15:00;;;;;;;17.53;3.30;;;;;;;;;;5042973;28;20187;-65
2022/01/28 07:17:26;;;;;;;10.73;3.27;;;;;;;;;;5041480;28;20589;-69
2022/01/28 07:19:52;;;;;;;16.67;3.50;;;;;;;;;;5041297;28;20568;-65
2022/01/28 07:22:18;;;;;;;13.07;2.80;;;;;;;;;;5043150;28;20279;-67
2022/01/28 07:24:45;;;;;;;16.77;3.67;;;;;;;;;;5042208;28;20179;-64
2022/01/28 07:27:11;;;;;;;15.13;3.73;;;;;;;;;;5041530;28;20665;-65
2022/01/28 07:29:36;;;;;;;9.63;2.80;;;;;;;;;;5042527;28;20270;-66
2022/01/28 07:32:03;;;;;;;17.10;3.73;;;;;;;;;;5042954;28;20230;-65
2022/01/28 07:34:29;;;;;;;12.17;3.40;;;;;;;;;;5042173;28;20251;-64
2022/01/28 07:36:55;;;;;;;13.27;3.53;;;;;;;;;;5042554;28;20547;-65
2022/01/28 07:39:21;;;;;;;14.30;3.20;;;;;;;;;;5040840;28;20190;-63
2022/01/28 07:41:47;;;;;;;14.17;3.33;;;;;;;;;;5042174;28;20222;-64
2022/01/28 07:44:13;;;;;;;13.03;3.00;;;;;;;;;;5042354;28;20182;-64
2022/01/28 07:46:39;;;;;;;11.63;3.63;;;;;;;;;;5041344;28;20183;-64
2022/01/28 07:49:05;;;;;;;12.53;3.50;;;;;;;;;;5040549;28;20244;-65
2022/01/28 07:51:31;;;;;;;11.63;2.73;;;;;;;;;;5042190;28;20294;-65
2022/01/28 07:53:57;;;;;;;9.97;3.63;;;;;;;;;;5040975;28;20674;-65
2022/01/28 07:56:24;;;;;;;12.93;3.00;;;;;;;;;;5041961;28;20202;-69
2022/01/28 07:58:50;;;;;;;12.27;2.80;;;;;;;;;;5040154;28;20183;-64
2022/01/28 08:01:16;;;;;;;13.23;3.03;;;;;;;;;;5041817;28;20619;-64
2022/01/28 08:03:42;;;;;;;13.27;2.77;;;;;;;;;;5041284;28;20554;-66
2022/01/28 08:06:08;;;;;;;17.83;3.43;;;;;;;;;;5041264;28;20175;-64
2022/01/28 08:08:34;;;;;;;10.87;3.00;;;;;;;;;;5040763;28;20186;-64
2022/01/28 08:11:00;;;;;;;12.47;2.87;;;;;;;;;;5041499;28;20218;-66
2022/01/28 08:13:26;;;;;;;14.23;3.03;;;;;;;;;;5041636;28;20639;-69
2022/01/28 08:15:52;;;;;;;11.97;3.33;;;;;;;;;;5041993;28;20195;-64
2022/01/28 08:18:18;;;;;;;13.10;3.77;;;;;;;;;;5041576;28;20207;-63
2022/01/28 08:20:46;;;;;;;13.00;3.23;;;;;;;;;;5041272;28;20203;-64
2022/01/28 08:25:51;;;;;;;10.47;3.20;;;;;;;;;;5071926;22;20243;-64
2022/01/28 08:28:17;;;;;;;11.93;3.07;;;;;;;;;;5035689;28;20179;-63
2022/01/28 08:30:43;;;;;;;14.53;3.53;;;;;;;;;;5033956;28;20547;-63
2022/01/28 08:33:08;;;;;;;16.20;3.83;;;;;;;;;;5034878;28;20282;-63
2022/01/28 08:35:38;;;;;;;20.83;3.50;;;;;;;;;;5033641;28;20195;-62
2022/01/28 08:38:13;;;;;;;12.50;3.20;;;;;;;;;;5033839;28;20209;-63
2022/01/28 08:40:40;;;;;;;12.47;3.40;;;;;;;;;;5033447;28;20174;-62
2022/01/28 08:43:06;;;;;;;11.97;3.83;;;;;;;;;;5035015;28;20167;-62
2022/01/28 08:45:32;;;;;;;14.37;3.40;;;;;;;;;;5033386;28;20214;-63
2022/01/28 08:47:58;;;;;;;9.87;3.47;;;;;;;;;;5043876;28;20218;-62
2022/01/28 08:50:24;;;;;;;10.23;3.03;;;;;;;;;;5048051;28;20190;-61
2022/01/28 08:52:50;;;;;;;18.07;3.53;;;;;;;;;;5048625;28;20247;-62
2022/01/28 08:55:16;;;;;;;14.60;3.93;;;;;;;;;;5041993;28;20199;-61
2022/01/28 08:57:43;;;;;;;13.80;4.80;;;;;;;;;;5033675;28;20301;-61
2022/01/28 09:00:11;;;;;;;14.43;4.27;;;;;;;;;;5034699;28;20171;-61
2022/01/28 09:02:37;;;;;;;9.87;2.97;;;;;;;;;;5034572;28;20258;-61
2022/01/28 09:05:03;;;;;;;11.80;4.03;;;;;;;;;;5035016;28;20222;-61
2022/01/28 09:07:29;;;;;;;15.90;3.77;;;;;;;;;;5039090;28;20191;-62
2022/01/28 09:10:02;;;;;;;14.13;3.50;;;;;;;;;;5046850;28;20572;-61
2022/01/28 09:15:26;;;;;;;19.23;3.83;;;;;;;;;;5034977;28;20214;-62
2022/01/28 09:17:52;;;;;;;15.63;3.03;;;;;;;;;;5037774;28;20207;-61
2022/01/28 09:20:18;;;;;;;18.50;4.63;;;;;;;;;;5034912;28;20276;-61
2022/01/28 09:22:44;;;;;;;16.63;3.27;;;;;;;;;;5034528;28;20639;-61
2022/01/28 09:25:10;;;;;;;10.93;3.43;;;;;;;;;;5033875;28;20593;-61
2022/01/28 09:27:36;;;;;;;10.77;3.23;;;;;;;;;;5034637;28;20524;-61
2022/01/28 09:30:02;;;;;;;10.77;3.17;;;;;;;;;;5032694;28;20611;-61
2022/01/28 09:32:28;;;;;;;16.37;3.50;;;;;;;;;;5033906;28;20187;-64
2022/01/28 09:34:54;;;;;;;10.50;3.60;;;;;;;;;;5034046;28;20249;-64
2022/01/28 09:37:20;;;;;;;12.17;3.50;;;;;;;;;;5033829;28;20568;-63
2022/01/28 09:39:46;;;;;;;9.37;3.73;;;;;;;;;;5032541;28;20179;-63
2022/01/28 09:42:15;;;;;;;11.00;3.10;;;;;;;;;;5033827;28;20545;-61
2022/01/28 09:44:42;;;;;;;13.00;4.33;;;;;;;;;;5035421;28;20249;-62
2022/01/28 09:47:09;;;;;;;11.63;3.87;;;;;;;;;;5034118;28;20194;-62
2022/01/28 09:49:36;;;;;;;12.43;3.10;;;;;;;;;;5039198;28;20190;-62
2022/01/28 09:52:03;;;;;;;15.70;3.53;;;;;;;;;;5038346;28;20182;-62
2022/01/28 09:54:29;;;;;;;13.03;3.73;;;;;;;;;;5038186;28;20286;-63
2022/01/28 09:56:55;;;;;;;10.80;2.90;;;;;;;;;;5037900;28;20240;-62
2022/01/28 09:59:21;;;;;;;8.80;3.40;;;;;;;;;;5037870;28;20171;-61
2022/01/28 10:01:48;;;;;;;9.93;3.23;;;;;;;;;;5037764;28;20171;-62
2022/01/28 10:04:17;;;;;;;14.23;3.97;;;;;;;;;;5037677;28;20203;-61
2022/01/28 10:06:43;;;;;;;13.77;4.03;;;;;;;;;;5036620;28;20214;-62
2022/01/28 10:09:10;;;;;;;12.53;3.80;;;;;;;;;;5037813;28;20179;-62
2022/01/28 10:11:37;;;;;;;13.70;3.80;;;;;;;;;;5038085;28;20183;-61
2022/01/28 10:14:10;;;;;;;14.00;4.27;;;;;;;;;;5036053;28;20241;-62
2022/01/28 10:16:36;;;;;;;10.30;3.77;;;;;;;;;;5036321;28;20260;-61
2022/01/28 10:19:04;;;;;;;13.70;3.60;;;;;;;;;;5037283;28;20179;-62
2022/01/28 10:21:30;;;;;;;9.90;3.83;;;;;;;;;;5036649;28;20194;-61
2022/01/28 10:24:05;;;;;;;14.20;3.20;;;;;;;;;;5035843;28;20298;-61
2022/01/28 10:26:31;;;;;;;17.50;4.37;;;;;;;;;;5036792;28;20670;-61
2022/01/28 10:28:58;;;;;;;15.53;3.47;;;;;;;;;;5038045;28;20291;-63
2022/01/28 10:31:38;;;;;;;10.73;3.63;;;;;;;;;;5038173;28;20190;-63
2022/01/28 10:34:43;;;;;;;16.87;4.30;;;;;;;;;;5037300;28;20242;-63
2022/01/28 10:37:19;;;;;;;19.33;4.40;;;;;;;;;;5014907;28;20211;-63
2022/01/28 10:39:51;;;;;;;15.60;4.03;;;;;;;;;;5016222;28;20184;-63
2022/01/28 10:42:19;;;;;;;12.67;3.13;;;;;;;;;;5026955;28;20191;-62
2022/01/28 10:44:53;;;;;;;13.70;3.93;;;;;;;;;;5037198;28;20194;-62
2022/01/28 10:47:29;;;;;;;11.80;3.40;;;;;;;;;;5035674;28;20190;-63
2022/01/28 10:49:55;;;;;;;14.30;4.07;;;;;;;;;;5036885;28;20163;-62
2022/01/28 10:52:30;;;;;;;11.83;3.70;;;;;;;;;;5036971;28;20550;-63
2022/01/28 10:54:59;;;;;;;11.97;3.13;;;;;;;;;;5036708;28;20221;-62
2022/01/28 10:57:25;;;;;;;13.70;3.10;;;;;;;;;;5034851;28;20213;-63
2022/01/28 10:59:52;;;;;;;13.70;3.50;;;;;;;;;;5034985;28;20178;-62
2022/01/28 11:02:18;;;;;;;17.20;4.13;;;;;;;;;;5037506;28;20175;-63
2022/01/28 11:04:46;;;;;;;12.97;4.27;;;;;;;;;;5036606;28;20194;-62
2022/01/28 11:07:12;;;;;;;11.50;3.37;;;;;;;;;;5034881;28;20190;-63
2022/01/28 11:09:40;;;;;;;8.37;3.10;;;;;;;;;;5037330;28;20186;-64
2022/01/28 11:12:07;;;;;;;19.87;4.30;;;;;;;;;;5038025;28;20179;-62
2022/01/28 11:14:33;;;;;;;11.03;3.03;;;;;;;;;;5039089;28;20194;-61
2022/01/28 11:16:59;;;;;;;13.40;3.30;;;;;;;;;;5039185;28;20571;-61
2022/01/28 11:19:28;;;;;;;8.47;2.70;;;;;;;;;;5038961;28;20185;-62
2022/01/28 11:22:05;;;;;;;16.07;3.67;;;;;;;;;;5039341;28;20175;-63
2022/01/28 11:24:37;;;;;;;10.17;3.37;;;;;;;;;;5039736;28;20650;-61
2022/01/28 11:27:22;;;;;;;14.73;3.30;;;;;;;;;;5039478;28;20201;-62
2022/01/28 11:29:48;;;;;;;16.60;3.43;;;;;;;;;;5038594;28;20183;-61
2022/01/28 11:32:15;;;;;;;13.20;3.40;;;;;;;;;;5038287;28;20179;-61
2022/01/28 11:34:56;;;;;;;17.53;4.67;;;;;;;;;;5034621;28;20210;-61
2022/01/28 11:37:32;;;;;;;9.40;3.30;;;;;;;;;;5036033;28;20203;-61
2022/01/28 11:40:10;;;;;;;17.90;3.53;;;;;;;;;;5035782;28;20185;-61
2022/01/28 11:42:36;;;;;;;21.70;7.47;;;;;;;;;;5034708;28;20175;-62
2022/01/28 11:45:04;;;;;;;20.57;8.07;;;;;;;;;;5035833;28;20198;-61
2022/01/28 11:47:31;;;;;;;11.97;4.13;;;;;;;;;;5037176;28;20199;-63
2022/01/28 11:49:56;;;;;;;19.73;5.07;;;;;;;;;;5035718;28;20179;-62
2022/01/28 11:52:27;;;;;;;14.40;4.23;;;;;;;;;;5036012;28;20270;-62
2022/01/28 11:54:53;;;;;;;23.47;3.83;;;;;;;;;;5034577;28;20242;-62
2022/01/28 11:57:21;;;;;;;15.83;4.33;;;;;;;;;;5035366;28;20194;-62
2022/01/28 11:59:47;;;;;;;16.80;3.40;;;;;;;;;;5034005;28;20642;-62
2022/01/28 12:02:14;;;;;;;9.63;3.57;;;;;;;;;;5035438;28;20176;-62
2022/01/28 12:04:41;;;;;;;13.00;3.60;;;;;;;;;;5035023;28;20720;-62
2022/01/28 12:07:14;;;;;;;12.43;2.97;;;;;;;;;;5034448;28;20560;-62
2022/01/28 12:09:41;;;;;;;17.03;3.57;;;;;;;;;;5035637;28;20197;-62
2022/01/28 12:12:11;;;;;;;11.63;3.77;;;;;;;;;;5041689;28;20179;-62
2022/01/28 12:14:50;;;;;;;19.83;6.83;;;;;;;;;;5042196;28;20201;-63
2022/01/28 12:17:31;;;;;;;15.43;4.90;;;;;;;;;;5039587;28;20207;-62
2022/01/28 12:20:15;;;;;;;19.97;3.93;;;;;;;;;;5035325;28;20177;-62
2022/01/28 12:23:02;;;;;;;12.63;3.93;;;;;;;;;;5035000;28;20203;-62
2022/01/28 12:25:37;;;;;;;15.20;3.57;;;;;;;;;;5033141;28;20720;-62
2022/01/28 12:28:11;;;;;;;11.23;3.27;;;;;;;;;;5033380;28;20186;-62
2022/01/28 12:30:37;;;;;;;17.10;3.90;;;;;;;;;;5034815;28;20722;-62
2022/01/28 12:33:03;;;;;;;18.03;5.17;;;;;;;;;;5034335;28;20179;-62
2022/01/28 12:35:29;;;;;;;13.80;4.33;;;;;;;;;;5033063;28;20212;-62
2022/01/28 12:38:03;;;;;;;15.90;3.90;;;;;;;;;;5032897;28;20264;-62
2022/01/28 12:40:36;;;;;;;11.10;3.43;;;;;;;;;;5034480;28;20210;-61
2022/01/28 12:43:03;;;;;;;13.53;4.80;;;;;;;;;;5034421;28;20282;-62
2022/01/28 12:45:29;;;;;;;11.80;2.93;;;;;;;;;;5034063;28;20728;-62
2022/01/28 12:47:55;;;;;;;14.63;3.47;;;;;;;;;;5034396;28;20179;-62
2022/01/28 12:50:22;;;;;;;8.93;3.20;;;;;;;;;;5032821;28;20183;-62
2022/01/28 12:52:48;;;;;;;11.00;2.93;;;;;;;;;;5034265;28;20182;-62
2022/01/28 12:55:14;;;;;;;12.53;3.43;;;;;;;;;;5034392;28;20199;-62
2022/01/28 12:57:43;;;;;;;11.17;3.23;;;;;;;;;;5034523;28;20747;-62
2022/01/28 13:00:10;;;;;;;10.77;3.80;;;;;;;;;;5032822;28;20186;-62
2022/01/28 13:02:36;;;;;;;14.50;3.77;;;;;;;;;;5034220;28;20566;-60
2022/01/28 13:10:21;;;;;;;19.00;5.53;;;;;;;;;;5033796;28;20635;-64
2022/01/28 13:12:48;;;;;;;10.90;3.90;;;;;;;;;;5033865;28;20187;-62
2022/01/28 13:15:14;;;;;;;10.70;3.67;;;;;;;;;;5033699;28;20234;-62
2022/01/28 13:17:51;;;;;;;12.03;4.37;;;;;;;;;;5033655;28;20663;-62
2022/01/28 13:20:17;;;;;;;16.93;5.43;;;;;;;;;;5034362;28;20203;-62
2022/01/28 13:22:48;;;;;;;19.43;4.90;;;;;;;;;;5033396;28;20265;-62
2022/01/28 13:25:19;;;;;;;41.00;16.13;;;;;;;;;;5033525;28;20217;-62
2022/01/28 13:27:46;;;;;;;10.97;3.50;;;;;;;;;;5033801;28;20265;-61
2022/01/28 13:30:14;;;;;;;27.07;8.27;;;;;;;;;;5032381;28;20183;-62
2022/01/28 13:32:43;;;;;;;25.57;10.33;;;;;;;;;;5033700;28;20182;-62
2022/01/28 13:35:13;;;;;;;12.37;4.90;;;;;;;;;;5033720;28;20209;-63
2022/01/28 13:37:41;;;;;;;14.23;3.73;;;;;;;;;;5033876;28;20252;-62
2022/01/28 13:40:10;;;;;;;16.93;4.40;;;;;;;;;;5032188;28;20175;-64
2022/01/28 13:42:37;;;;;;;11.83;4.70;;;;;;;;;;5033328;28;20193;-62
2022/01/28 13:45:05;;;;;;;9.10;2.60;;;;;;;;;;5033412;28;20203;-62
2022/01/28 13:47:47;;;;;;;18.87;5.27;;;;;;;;;;5032064;28;20190;-62
2022/01/28 13:50:22;;;;;;;17.70;4.93;;;;;;;;;;5033577;28;20179;-64
2022/01/28 13:52:52;;;;;;;9.40;3.90;;;;;;;;;;5033939;28;20162;-62
2022/01/28 13:55:31;;;;;;;12.67;3.63;;;;;;;;;;5034023;28;20199;-62
2022/01/28 13:58:01;;;;;;;11.73;3.10;;;;;;;;;;5034261;28;20214;-63
2022/01/28 14:00:35;;;;;;;10.80;2.93;;;;;;;;;;5037129;28;20593;-62
2022/01/28 14:03:01;;;;;;;9.63;2.70;;;;;;;;;;5036648;28;20619;-62
2022/01/28 14:05:47;;;;;;;11.53;2.90;;;;;;;;;;5035481;28;20225;-62
2022/01/28 14:08:13;;;;;;;8.47;3.03;;;;;;;;;;5036183;28;20163;-62
2022/01/28 14:10:39;;;;;;;10.00;2.50;;;;;;;;;;5033671;28;20374;-62
2022/01/28 14:13:21;;;;;;;10.83;2.87;;;;;;;;;;5033385;28;20186;-62
2022/01/28 14:16:04;;;;;;;8.90;2.63;;;;;;;;;;5033229;28;20195;-61
2022/01/28 14:18:30;;;;;;;5.67;2.30;;;;;;;;;;5033794;28;20156;-62
2022/01/28 14:20:57;;;;;;;9.27;2.27;;;;;;;;;;5032342;28;20206;-62
2022/01/28 14:23:22;;;;;;;10.27;2.80;;;;;;;;;;5032081;28;20274;-62
2022/01/28 14:25:48;;;;;;;8.73;2.00;;;;;;;;;;5033014;28;20341;-62
2022/01/28 14:30:44;;;;;;;7.90;2.63;;;;;;;;;;5033487;28;20660;-62
2022/01/28 14:33:11;;;;;;;9.53;3.43;;;;;;;;;;5033583;28;20229;-62
2022/01/28 14:35:38;;;;;;;7.20;2.47;;;;;;;;;;5037140;28;20279;-62
2022/01/28 14:38:04;;;;;;;13.50;3.20;;;;;;;;;;5037300;28;20764;-62
2022/01/28 14:40:30;;;;;;;9.97;3.00;;;;;;;;;;5047720;22;20270;-65
2022/01/28 14:42:56;;;;;;;10.40;3.50;;;;;;;;;;5019182;28;20302;-64
2022/01/28 14:45:22;;;;;;;14.43;3.37;;;;;;;;;;5020685;28;20180;-66
2022/01/28 14:47:48;;;;;;;9.80;3.10;;;;;;;;;;5021407;28;20217;-65
2022/01/28 14:50:15;;;;;;;9.20;2.80;;;;;;;;;;5019346;28;20191;-65
2022/01/28 14:52:41;;;;;;;9.43;2.97;;;;;;;;;;5018894;28;20180;-65
2022/01/28 14:55:07;;;;;;;8.13;3.03;;;;;;;;;;5020602;28;20690;-66
2022/01/28 14:57:33;;;;;;;11.93;2.93;;;;;;;;;;5021986;28;20235;-65
2022/01/28 14:59:59;;;;;;;10.37;3.30;;;;;;;;;;5021140;28;20223;-66
2022/01/28 15:02:27;;;;;;;10.87;3.20;;;;;;;;;;5020052;28;20618;-65
2022/01/28 15:04:57;;;;;;;11.67;3.27;;;;;;;;;;5020770;28;20172;-65
2022/01/28 15:07:26;;;;;;;7.63;3.20;;;;;;;;;;5019486;28;20644;-66
2022/01/28 15:09:54;;;;;;;11.13;3.40;;;;;;;;;;5020846;28;20180;-65
2022/01/28 15:12:20;;;;;;;12.87;4.00;;;;;;;;;;5022360;28;20195;-65
2022/01/28 15:14:46;;;;;;;7.20;3.00;;;;;;;;;;5020464;28;20188;-65
2022/01/28 15:17:15;;;;;;;19.30;5.83;;;;;;;;;;5021689;28;20656;-66
2022/01/28 15:19:41;;;;;;;15.13;4.87;;;;;;;;;;5019545;28;20176;-65
2022/01/28 15:22:07;;;;;;;13.50;5.30;;;;;;;;;;5019740;28;20279;-65
2022/01/28 15:24:33;;;;;;;9.40;4.83;;;;;;;;;;5021695;28;20262;-66
2022/01/28 15:26:59;;;;;;;15.37;6.90;;;;;;;;;;5021305;28;20183;-66
2022/01/28 15:35:01;;;;;;;16.67;6.43;;;;;;;;;;5019704;28;20179;-65
2022/01/28 15:37:27;;;;;;;17.97;7.33;;;;;;;;;;5019155;28;20184;-67
2022/01/28 15:39:53;;;;;;;15.57;6.20;;;;;;;;;;5018842;28;20546;-64
2022/01/28 15:42:19;;;;;;;15.47;6.20;;;;;;;;;;5018759;28;20212;-65
2022/01/28 15:44:46;;;;;;;14.23;6.63;;;;;;;;;;5017987;28;20172;-65
2022/01/28 15:47:13;;;;;;;10.27;5.73;;;;;;;;;;5017635;28;20184;-65
2022/01/28 15:49:41;;;;;;;18.27;6.30;;;;;;;;;;5018251;28;20579;-65
2022/01/28 15:52:07;;;;;;;19.03;7.13;;;;;;;;;;5019789;28;20180;-65
2022/01/28 15:54:33;;;;;;;22.73;7.60;;;;;;;;;;5021153;28;20188;-65
2022/01/28 15:57:01;;;;;;;20.80;8.23;;;;;;;;;;5020594;28;20230;-65
2022/01/28 15:59:27;;;;;;;23.53;7.90;;;;;;;;;;5019470;28;20184;-66
2022/01/28 16:01:53;;;;;;;22.03;9.17;;;;;;;;;;5019500;28;20227;-65
2022/01/28 16:04:19;;;;;;;34.00;16.60;;;;;;;;;;5018281;28;20655;-65
2022/01/28 16:06:48;;;;;;;33.87;18.40;;;;;;;;;;5019982;28;20183;-65
2022/01/28 16:09:14;;;;;;;25.13;13.17;;;;;;;;;;5020024;28;20632;-64